createdAt,value
2019-05-18T00:01:13.337Z,58.30
2019-05-18T00:03:41.750Z,59.06
2019-05-18T00:06:10.156Z,59.50
2019-05-18T00:08:38.605Z,58.93
2019-05-18T00:11:07.022Z,58.46
2019-05-18T00:13:35.460Z,58.26
2019-05-18T00:16:03.903Z,58.05
2019-05-18T00:18:32.296Z,58.34
2019-05-18T00:21:00.726Z,58.99
2019-05-18T00:23:29.213Z,59.34
2019-05-18T00:25:57.645Z,60.37
2019-05-18T00:28:26.062Z,59.73
2019-05-18T00:30:54.486Z,59.12
2019-05-18T00:33:22.946Z,60.49
2019-05-18T00:35:51.480Z,60.71
2019-05-18T00:38:19.901Z,59.34
2019-05-18T00:40:48.341Z,59.16
2019-05-18T00:43:16.734Z,59.13
2019-05-18T00:45:45.213Z,59.67
2019-05-18T00:48:13.721Z,59.23
2019-05-18T00:50:42.246Z,59.80
2019-05-18T00:53:10.815Z,59.43
2019-05-18T00:55:39.208Z,59.06
2019-05-18T00:58:07.615Z,58.95
2019-05-18T01:00:36.064Z,59.65
2019-05-18T01:03:04.595Z,59.16
2019-05-18T01:05:33.077Z,59.11
2019-05-18T01:08:01.494Z,60.26
2019-05-18T01:10:29.934Z,59.42
2019-05-18T01:12:58.451Z,59.79
2019-05-18T01:15:26.873Z,59.56
2019-05-18T01:17:57.653Z,60.25
2019-05-18T01:20:25.555Z,60.42
2019-05-18T01:22:54.010Z,59.86
2019-05-18T01:25:22.409Z,60.57
2019-05-18T01:27:50.862Z,60.13
2019-05-18T01:30:19.646Z,60.92
2019-05-18T01:32:48.204Z,61.07
2019-05-18T01:35:16.777Z,61.35
2019-05-18T01:37:45.214Z,60.41
2019-05-18T01:40:14.090Z,60.11
2019-05-18T01:42:42.523Z,59.94
2019-05-18T01:45:16.822Z,60.59
2019-05-18T01:47:41.575Z,60.98
2019-05-18T01:50:10.925Z,62.75
2019-05-18T01:52:39.435Z,61.59
2019-05-18T01:55:08.185Z,61.71
2019-05-18T01:57:36.743Z,62.03
2019-05-18T02:00:10.582Z,62.01
2019-05-18T02:02:39.029Z,62.77
2019-05-18T02:05:08.007Z,62.20
2019-05-18T02:07:36.403Z,62.92
2019-05-18T02:10:06.791Z,62.67
2019-05-18T02:12:35.194Z,63.06
2019-05-18T02:15:04.663Z,63.13
2019-05-18T02:17:33.145Z,63.21
2019-05-18T02:20:01.597Z,62.72
2019-05-18T02:22:30.007Z,62.87
2019-05-18T02:24:58.446Z,63.14
2019-05-18T02:27:26.859Z,63.10
2019-05-18T02:29:55.297Z,63.29
2019-05-18T02:32:23.758Z,63.38
2019-05-18T02:34:52.223Z,63.00
2019-05-18T02:37:20.673Z,63.22
2019-05-18T02:39:50.742Z,63.23
2019-05-18T02:42:19.155Z,63.25
2019-05-18T02:44:47.705Z,63.43
2019-05-18T02:47:16.135Z,63.55
2019-05-18T02:49:44.662Z,63.85
2019-05-18T02:52:13.053Z,63.34
2019-05-18T02:54:41.509Z,63.83
2019-05-18T02:57:09.968Z,63.93
2019-05-18T02:59:38.379Z,63.51
2019-05-18T03:02:07.011Z,63.94
2019-05-18T03:04:35.450Z,63.79
2019-05-18T03:07:03.977Z,64.24
2019-05-18T03:09:32.418Z,64.23
2019-05-18T03:12:00.825Z,64.12
2019-05-18T03:14:29.223Z,63.80
2019-05-18T03:16:57.675Z,63.73
2019-05-18T03:19:26.173Z,62.56
2019-05-18T03:21:54.623Z,62.22
2019-05-18T03:24:23.158Z,62.82
2019-05-18T03:26:51.562Z,62.53
2019-05-18T03:29:19.982Z,62.29
2019-05-18T03:31:48.457Z,62.21
2019-05-18T03:34:16.899Z,64.01
2019-05-18T03:36:45.545Z,64.29
2019-05-18T03:39:15.755Z,63.60
2019-05-18T03:41:44.200Z,62.68
2019-05-18T03:44:12.658Z,63.46
2019-05-18T03:46:41.189Z,62.75
2019-05-18T03:49:25.499Z,62.41
2019-05-18T03:51:39.776Z,62.37
2019-05-18T03:54:08.238Z,62.32
2019-05-18T03:56:36.645Z,62.40
2019-05-18T03:59:05.109Z,62.26
2019-05-18T04:01:33.530Z,63.11
2019-05-18T04:04:01.994Z,62.59
2019-05-18T04:06:30.495Z,62.39
2019-05-18T04:08:58.908Z,63.91
2019-05-18T04:11:27.519Z,64.10
2019-05-18T04:13:55.928Z,62.91
2019-05-18T04:16:24.427Z,62.82
2019-05-18T04:18:52.853Z,64.28
2019-05-18T04:21:21.283Z,64.85
2019-05-18T04:23:49.688Z,64.69
2019-05-18T04:26:18.134Z,63.44
2019-05-18T04:28:46.648Z,62.95
2019-05-18T04:31:15.073Z,64.11
2019-05-18T04:33:43.507Z,64.93
2019-05-18T04:36:11.938Z,64.86
2019-05-18T04:38:40.327Z,63.96
2019-05-18T04:41:08.878Z,64.82
2019-05-18T04:43:37.308Z,65.35
2019-05-18T04:46:05.703Z,63.97
2019-05-18T04:48:34.123Z,64.00
2019-05-18T04:51:02.627Z,63.15
2019-05-18T04:53:31.030Z,64.72
2019-05-18T04:55:59.476Z,65.14
2019-05-18T04:58:27.885Z,64.97
2019-05-18T05:00:56.283Z,65.48
2019-05-18T05:03:24.739Z,65.60
2019-05-18T05:05:53.158Z,65.06
2019-05-18T05:08:21.584Z,65.45
2019-05-18T05:10:50.007Z,65.58
2019-05-18T05:13:18.426Z,63.99
2019-05-18T05:15:46.860Z,64.60
2019-05-18T05:18:15.268Z,64.56
2019-05-18T05:20:45.557Z,63.62
2019-05-18T05:23:13.968Z,64.00
2019-05-18T05:25:42.397Z,64.23
2019-05-18T05:28:10.839Z,65.02
2019-05-18T05:30:39.246Z,64.65
2019-05-18T05:33:07.683Z,64.56
2019-05-18T05:35:37.795Z,64.11
2019-05-18T05:38:06.447Z,63.85
2019-05-18T05:40:34.885Z,63.54
2019-05-18T05:43:03.296Z,64.83
2019-05-18T05:45:31.776Z,64.98
2019-05-18T05:48:00.241Z,64.15
2019-05-18T05:50:36.037Z,64.94
2019-05-18T05:52:58.865Z,65.55
2019-05-18T05:55:27.308Z,65.06
2019-05-18T05:57:55.719Z,65.15
2019-05-18T06:00:24.144Z,65.10
2019-05-18T06:02:52.694Z,65.29
2019-05-18T06:05:21.105Z,65.29
2019-05-18T06:07:49.537Z,65.45
2019-05-18T06:10:18.521Z,65.45
2019-05-18T06:12:47.343Z,65.36
2019-05-18T06:15:16.095Z,65.56
2019-05-18T06:17:44.509Z,65.17
2019-05-18T06:20:13.118Z,65.64
2019-05-18T06:22:41.557Z,65.23
2019-05-18T06:25:10.339Z,65.13
2019-05-18T06:27:38.947Z,65.32
2019-05-18T06:30:08.017Z,65.07
2019-05-18T06:32:36.515Z,63.29
2019-05-18T06:35:05.905Z,63.80
2019-05-18T06:37:34.354Z,64.23
2019-05-18T06:40:02.786Z,63.43
2019-05-18T06:42:31.421Z,62.84
2019-05-18T06:44:59.983Z,61.87
2019-05-18T06:47:28.560Z,62.29
2019-05-18T06:49:57.025Z,61.87
2019-05-18T06:52:25.507Z,62.70
2019-05-18T06:54:53.935Z,62.78
2019-05-18T06:57:25.586Z,63.86
2019-05-18T06:59:54.561Z,64.40
2019-05-18T07:02:22.971Z,64.48
2019-05-18T07:04:51.396Z,64.09
2019-05-18T07:07:19.805Z,64.67
2019-05-18T07:09:48.239Z,64.33
2019-05-18T07:12:16.759Z,64.95
2019-05-18T07:14:45.249Z,65.05
2019-05-18T07:17:13.619Z,65.54
2019-05-18T07:19:42.016Z,65.46
2019-05-18T07:22:10.447Z,65.46
2019-05-18T07:24:38.853Z,65.29
2019-05-18T07:27:07.282Z,65.32
2019-05-18T07:29:35.709Z,65.45
2019-05-18T07:32:04.221Z,65.09
2019-05-18T07:34:32.622Z,65.48
2019-05-18T07:37:01.121Z,65.73
2019-05-18T07:39:29.531Z,65.99
2019-05-18T07:41:57.936Z,65.26
2019-05-18T07:44:26.471Z,65.41
2019-05-18T07:46:54.899Z,65.42
2019-05-18T07:49:23.302Z,65.62
2019-05-18T07:51:51.744Z,65.52
2019-05-18T07:54:20.222Z,65.55
2019-05-18T07:56:48.624Z,64.30
2019-05-18T07:59:19.773Z,64.60
2019-05-18T08:01:47.275Z,65.44
2019-05-18T08:04:18.711Z,65.25
2019-05-18T08:06:47.136Z,65.27
2019-05-18T08:09:15.552Z,65.74
2019-05-18T08:11:44.032Z,64.42
2019-05-18T08:14:12.441Z,65.06
2019-05-18T08:16:40.893Z,65.75
2019-05-18T08:19:09.399Z,64.07
2019-05-18T08:21:52.266Z,65.31
2019-05-18T08:24:08.241Z,65.62
2019-05-18T08:26:36.978Z,65.91
2019-05-18T08:29:05.470Z,64.37
2019-05-18T08:31:33.960Z,64.38
2019-05-18T08:34:02.576Z,64.55
2019-05-18T08:36:31.107Z,65.11
2019-05-18T08:38:59.692Z,65.92
2019-05-18T08:41:28.103Z,65.92
2019-05-18T08:44:03.818Z,66.26
2019-05-18T08:46:32.216Z,66.40
2019-05-18T08:49:00.721Z,66.51
2019-05-18T08:51:29.188Z,66.05
2019-05-18T08:53:57.652Z,66.12
2019-05-18T08:56:26.065Z,66.19
2019-05-18T08:58:54.661Z,63.75
2019-05-18T09:01:23.230Z,65.67
2019-05-18T09:03:51.633Z,66.18
2019-05-18T09:06:20.075Z,66.08
2019-05-18T09:08:48.774Z,64.61
2019-05-18T09:11:17.231Z,64.08
2019-05-18T09:13:45.634Z,64.74
2019-05-18T09:16:14.089Z,64.55
2019-05-18T09:18:42.546Z,63.89
2019-05-18T09:21:10.989Z,64.06
2019-05-18T09:23:39.457Z,64.17
2019-05-18T09:26:09.497Z,63.97
2019-05-18T09:28:37.917Z,64.12
2019-05-18T09:31:06.348Z,63.77
2019-05-18T09:33:34.882Z,63.67
2019-05-18T09:36:03.315Z,63.33
2019-05-18T09:38:33.654Z,63.95
2019-05-18T09:41:02.237Z,63.29
2019-05-18T09:43:30.706Z,63.36
2019-05-18T09:45:59.208Z,64.92
2019-05-18T09:48:27.723Z,63.51
2019-05-18T09:50:56.141Z,62.85
2019-05-18T09:53:24.717Z,62.28
2019-05-18T09:55:53.206Z,62.08
2019-05-18T09:58:21.729Z,62.30
2019-05-18T10:00:50.220Z,61.90
2019-05-18T10:03:18.756Z,62.32
2019-05-18T10:05:47.174Z,62.48
2019-05-18T10:08:16.286Z,61.16
2019-05-18T10:10:45.179Z,61.70
2019-05-18T10:13:13.587Z,61.18
2019-05-18T10:15:42.088Z,60.84
2019-05-18T10:18:10.514Z,61.76
2019-05-18T10:20:38.964Z,60.79
2019-05-18T10:23:12.672Z,59.00
2019-05-18T10:25:37.498Z,58.46
2019-05-18T10:28:05.904Z,59.34
2019-05-18T10:30:34.435Z,58.89
2019-05-18T10:33:02.905Z,58.69
2019-05-18T10:35:31.318Z,58.66
2019-05-18T10:37:59.994Z,59.86
2019-05-18T10:40:28.429Z,57.20
2019-05-18T10:42:56.840Z,57.63
2019-05-18T10:45:25.279Z,57.08
2019-05-18T10:47:53.682Z,56.48
2019-05-18T10:50:22.134Z,56.92
2019-05-18T10:52:50.544Z,56.54
2019-05-18T10:55:19.043Z,55.87
2019-05-18T10:57:50.617Z,56.69
2019-05-18T11:00:23.034Z,56.51
2019-05-18T11:02:51.483Z,57.13
2019-05-18T11:05:20.053Z,57.41
2019-05-18T11:07:48.486Z,57.41
2019-05-18T11:10:20.180Z,57.11
2019-05-18T11:12:48.645Z,56.12
2019-05-18T11:15:17.864Z,56.60
2019-05-18T11:17:46.778Z,56.76
2019-05-18T11:20:15.553Z,57.18
2019-05-18T11:22:44.555Z,57.46
2019-05-18T11:25:13.420Z,57.61
2019-05-18T11:27:41.931Z,57.18
2019-05-18T11:30:12.748Z,56.78
2019-05-18T11:32:41.193Z,56.61
2019-05-18T11:35:10.519Z,56.30
2019-05-18T11:37:39.118Z,56.45
2019-05-18T11:40:08.988Z,57.11
2019-05-18T11:42:37.502Z,57.52
2019-05-18T11:45:08.929Z,56.49
2019-05-18T11:47:37.399Z,56.45
2019-05-18T11:50:09.263Z,56.20
2019-05-18T11:52:37.875Z,57.03
2019-05-18T11:55:09.647Z,55.96
2019-05-18T11:57:38.052Z,56.02
2019-05-18T12:00:09.341Z,56.80
2019-05-18T12:02:37.816Z,56.40
2019-05-18T12:05:07.862Z,55.96
2019-05-18T12:07:36.329Z,55.96
2019-05-18T12:10:09.561Z,56.37
2019-05-18T12:12:38.078Z,56.27
2019-05-18T12:15:09.007Z,56.26
2019-05-18T12:17:37.497Z,56.30
2019-05-18T12:20:07.940Z,56.46
2019-05-18T12:22:36.356Z,56.00
2019-05-18T12:25:07.063Z,55.95
2019-05-18T12:27:35.586Z,55.45
2019-05-18T12:30:09.157Z,55.82
2019-05-18T12:32:37.661Z,55.90
2019-05-18T12:35:09.909Z,56.04
2019-05-18T12:37:38.335Z,55.37
2019-05-18T12:40:08.251Z,55.15
2019-05-18T12:42:36.690Z,54.90
2019-05-18T12:45:07.454Z,55.10
2019-05-18T12:47:35.918Z,55.02
2019-05-18T12:50:07.125Z,55.10
2019-05-18T12:52:35.584Z,55.59
2019-05-18T12:55:06.328Z,55.59
2019-05-18T12:57:35.279Z,55.76
2019-05-18T13:00:05.585Z,55.13
2019-05-18T13:02:34.014Z,55.35
2019-05-18T13:05:04.269Z,54.66
2019-05-18T13:07:32.622Z,54.71
2019-05-18T13:10:01.057Z,55.40
2019-05-18T13:12:29.471Z,55.54
2019-05-18T13:14:57.906Z,55.81
2019-05-18T13:17:26.308Z,56.11
2019-05-18T13:19:54.758Z,56.00
2019-05-18T13:22:23.169Z,56.28
2019-05-18T13:24:52.284Z,55.47
2019-05-18T13:27:20.842Z,55.58
2019-05-18T13:29:49.285Z,55.16
2019-05-18T13:32:17.826Z,52.95
2019-05-18T13:34:46.324Z,50.77
2019-05-18T13:37:14.933Z,49.25
2019-05-18T13:39:43.420Z,48.42
2019-05-18T13:42:11.834Z,49.03
2019-05-18T13:44:40.280Z,49.18
2019-05-18T13:47:11.499Z,49.29
2019-05-18T13:49:41.600Z,49.78
2019-05-18T13:52:09.996Z,50.21
2019-05-18T13:54:38.433Z,49.55
2019-05-18T13:57:06.901Z,48.36
2019-05-18T13:59:35.384Z,48.80
2019-05-18T14:02:05.339Z,49.01
2019-05-18T14:04:34.262Z,50.03
2019-05-18T14:07:04.783Z,49.66
2019-05-18T14:09:35.933Z,48.05
2019-05-18T14:12:04.434Z,47.94
2019-05-18T14:14:36.162Z,48.36
2019-05-18T14:17:04.658Z,48.10
2019-05-18T14:19:33.155Z,47.64
2019-05-18T14:22:03.649Z,46.81
2019-05-18T14:24:32.069Z,46.54
2019-05-18T14:27:00.533Z,47.70
2019-05-18T14:29:28.926Z,47.18
2019-05-18T14:31:57.374Z,46.47
2019-05-18T14:34:25.820Z,46.04
2019-05-18T14:36:54.404Z,44.25
2019-05-18T14:39:23.298Z,44.39
2019-05-18T14:41:51.840Z,44.10
2019-05-18T14:44:20.242Z,44.83
2019-05-18T14:46:48.633Z,45.33
2019-05-18T14:49:17.073Z,45.09
2019-05-18T14:51:45.491Z,45.42
2019-05-18T14:54:13.933Z,43.11
2019-05-18T14:56:42.356Z,43.39
2019-05-18T14:59:10.759Z,43.19
2019-05-18T15:01:39.299Z,44.04
2019-05-18T15:04:07.787Z,44.11
2019-05-18T15:06:36.187Z,44.58
2019-05-18T15:09:06.473Z,44.82
2019-05-18T15:11:35.164Z,44.18
2019-05-18T15:14:03.608Z,44.25
2019-05-18T15:16:32.080Z,45.21
2019-05-18T15:19:00.518Z,46.32
2019-05-18T15:21:28.980Z,46.47
2019-05-18T15:23:57.385Z,47.95
2019-05-18T15:26:25.806Z,47.78
2019-05-18T15:28:54.227Z,46.72
2019-05-18T15:31:23.896Z,46.84
2019-05-18T15:33:52.443Z,46.62
2019-05-18T15:36:20.846Z,46.51
2019-05-18T15:38:49.273Z,46.77
2019-05-18T15:41:17.685Z,46.68
2019-05-18T15:43:46.121Z,46.02
2019-05-18T15:46:14.540Z,46.32
2019-05-18T15:48:42.975Z,46.73
2019-05-18T15:51:11.390Z,46.57
2019-05-18T15:53:39.792Z,46.32
2019-05-18T15:56:08.287Z,46.15
2019-05-18T15:58:36.679Z,46.00
2019-05-18T16:01:05.255Z,46.38
2019-05-18T16:03:33.654Z,46.39
2019-05-18T16:06:02.232Z,46.31
2019-05-18T16:08:30.745Z,46.20
2019-05-18T16:10:59.198Z,46.60
2019-05-18T16:13:27.643Z,46.64
2019-05-18T16:15:56.045Z,46.63
2019-05-18T16:18:24.461Z,46.72
2019-05-18T16:20:52.863Z,46.75
2019-05-18T16:23:21.398Z,46.87
2019-05-18T16:25:49.895Z,46.92
2019-05-18T16:28:18.303Z,46.97
2019-05-18T16:30:46.759Z,46.10
2019-05-18T16:33:15.203Z,46.29
2019-05-18T16:35:43.600Z,46.76
2019-05-18T16:38:12.086Z,46.98
2019-05-18T16:40:40.483Z,46.85
2019-05-18T16:43:08.887Z,47.43
2019-05-18T16:45:37.322Z,47.31
2019-05-18T16:48:05.813Z,46.95
2019-05-18T16:50:34.222Z,46.08
2019-05-18T16:53:02.832Z,46.39
2019-05-18T16:55:31.389Z,46.84
2019-05-18T16:57:59.766Z,46.43
2019-05-18T17:00:28.398Z,46.58
2019-05-18T17:02:56.915Z,46.71
2019-05-18T17:05:25.309Z,46.80
2019-05-18T17:07:53.795Z,46.77
2019-05-18T17:10:22.298Z,46.51
2019-05-18T17:12:50.862Z,45.68
2019-05-18T17:15:19.729Z,44.77
2019-05-18T17:17:48.155Z,44.88
2019-05-18T17:20:17.221Z,45.09
2019-05-18T17:22:46.083Z,45.37
2019-05-18T17:25:14.685Z,45.64
2019-05-18T17:27:43.141Z,45.75
2019-05-18T17:30:12.182Z,45.57
2019-05-18T17:32:40.597Z,46.11
2019-05-18T17:35:09.772Z,46.53
2019-05-18T17:37:38.240Z,46.72
2019-05-18T17:40:07.347Z,47.33
2019-05-18T17:42:35.909Z,47.75
2019-05-18T17:45:09.453Z,47.81
2019-05-18T17:47:38.058Z,48.10
2019-05-18T17:50:07.930Z,48.44
2019-05-18T17:52:36.349Z,48.75
2019-05-18T17:55:06.555Z,48.67
2019-05-18T17:57:35.027Z,48.65
2019-05-18T18:00:05.348Z,48.90
2019-05-18T18:02:33.875Z,49.22
2019-05-18T18:05:02.364Z,49.20
2019-05-18T18:07:30.811Z,49.34
2019-05-18T18:09:59.207Z,49.45
2019-05-18T18:12:27.634Z,49.38
2019-05-18T18:14:56.169Z,49.42
2019-05-18T18:17:24.582Z,49.49
2019-05-18T18:19:52.988Z,49.15
2019-05-18T18:22:23.836Z,49.21
2019-05-18T18:24:51.705Z,49.57
2019-05-18T18:27:25.086Z,49.98
2019-05-18T18:29:50.479Z,50.62
2019-05-18T18:32:18.981Z,52.85
2019-05-18T18:34:47.483Z,54.23
2019-05-18T18:37:16.017Z,53.55
2019-05-18T18:39:44.441Z,54.34
2019-05-18T18:42:12.924Z,54.20
2019-05-18T18:44:41.462Z,54.05
2019-05-18T18:47:09.890Z,56.05
2019-05-18T18:49:38.311Z,54.36
2019-05-18T18:52:06.713Z,54.84
2019-05-18T18:54:35.181Z,55.27
2019-05-18T18:57:03.679Z,55.61
2019-05-18T18:59:32.100Z,55.10
2019-05-18T19:02:00.541Z,56.89
2019-05-18T19:04:29.002Z,57.85
2019-05-18T19:06:58.988Z,57.96
2019-05-18T19:09:27.416Z,59.17
2019-05-18T19:11:55.942Z,58.60
2019-05-18T19:14:24.943Z,66.14
2019-05-18T19:16:53.466Z,69.10
2019-05-18T19:19:21.937Z,72.24
2019-05-18T19:21:50.357Z,73.13
2019-05-18T19:24:18.773Z,70.11
2019-05-18T19:26:47.275Z,70.85
2019-05-18T19:29:15.674Z,71.29
2019-05-18T19:31:44.119Z,72.38
2019-05-18T19:34:12.519Z,72.59
2019-05-18T19:36:41.023Z,72.63
2019-05-18T19:39:09.419Z,77.27
2019-05-18T19:41:37.951Z,78.06
2019-05-18T19:44:06.343Z,73.56
2019-05-18T19:46:34.839Z,73.96
2019-05-18T19:49:03.238Z,75.79
2019-05-18T19:51:31.708Z,74.13
2019-05-18T19:54:00.129Z,74.58
2019-05-18T19:56:28.529Z,75.20
2019-05-18T19:58:57.179Z,74.39
2019-05-18T20:01:25.610Z,74.28
2019-05-18T20:03:54.029Z,75.34
2019-05-18T20:06:22.466Z,74.56
2019-05-18T20:08:50.886Z,74.26
2019-05-18T20:11:19.303Z,73.80
2019-05-18T20:13:47.734Z,74.09
2019-05-18T20:16:16.138Z,73.54
2019-05-18T20:18:44.587Z,75.32
2019-05-18T20:21:12.987Z,75.19
2019-05-18T20:23:41.388Z,74.95
2019-05-18T20:26:09.808Z,76.11
2019-05-18T20:28:38.235Z,75.62
2019-05-18T20:31:06.740Z,75.03
2019-05-18T20:33:35.179Z,74.87
2019-05-18T20:36:03.590Z,74.77
2019-05-18T20:38:32.037Z,74.15
2019-05-18T20:41:00.499Z,79.31
2019-05-18T20:43:29.106Z,80.73
2019-05-18T20:45:57.545Z,80.96
2019-05-18T20:48:26.182Z,79.56
2019-05-18T20:50:54.632Z,80.66
2019-05-18T20:53:23.196Z,79.43
2019-05-18T20:55:51.655Z,78.04
2019-05-18T20:58:20.062Z,78.57
2019-05-18T21:00:48.513Z,79.07
2019-05-18T21:03:16.909Z,80.43
2019-05-18T21:05:45.305Z,80.43
2019-05-18T21:08:13.768Z,78.80
2019-05-18T21:10:42.275Z,80.06
2019-05-18T21:13:10.681Z,81.62
2019-05-18T21:15:39.107Z,78.18
2019-05-18T21:18:07.578Z,80.93
2019-05-18T21:20:36.118Z,79.57
2019-05-18T21:23:04.533Z,77.81
2019-05-18T21:25:33.432Z,80.20
2019-05-18T21:28:01.871Z,77.61
2019-05-18T21:30:30.294Z,78.73
2019-05-18T21:32:58.728Z,76.45
2019-05-18T21:35:27.133Z,77.60
2019-05-18T21:37:55.580Z,77.69
2019-05-18T21:40:26.167Z,77.23
2019-05-18T21:42:54.366Z,76.78
2019-05-18T21:45:22.763Z,78.62
2019-05-18T21:47:51.215Z,77.02
2019-05-18T21:50:19.689Z,79.64
2019-05-18T21:52:48.115Z,81.09
2019-05-18T21:55:16.571Z,82.26
2019-05-18T21:57:44.968Z,81.04
2019-05-18T22:00:13.617Z,79.47
2019-05-18T22:02:42.075Z,78.44
2019-05-18T22:05:10.752Z,81.18
2019-05-18T22:07:39.137Z,81.74
2019-05-18T22:10:08.376Z,78.06
2019-05-18T22:12:36.875Z,79.56
2019-05-18T22:15:08.840Z,78.43
2019-05-18T22:17:55.306Z,81.09
2019-05-18T22:20:23.866Z,79.47
2019-05-18T22:22:52.263Z,79.09
2019-05-18T22:25:20.701Z,79.67
2019-05-18T22:27:49.115Z,80.31
2019-05-18T22:30:17.547Z,78.14
2019-05-18T22:32:45.997Z,77.60
2019-05-18T22:35:14.598Z,77.48
2019-05-18T22:37:43.028Z,77.72
2019-05-18T22:40:11.605Z,77.46
2019-05-18T22:42:41.137Z,79.46
2019-05-18T22:45:09.752Z,81.58
2019-05-18T22:47:38.642Z,79.61
2019-05-18T22:50:07.761Z,80.35
2019-05-18T22:52:36.260Z,81.97
2019-05-18T22:55:06.444Z,82.36
2019-05-18T22:57:34.920Z,80.42
2019-05-18T23:00:07.203Z,80.39
2019-05-18T23:02:35.647Z,78.68
2019-05-18T23:05:05.015Z,78.40
2019-05-18T23:07:33.452Z,80.19
2019-05-18T23:10:02.049Z,78.28
2019-05-18T23:12:30.560Z,77.61
2019-05-18T23:14:58.998Z,78.46
2019-05-18T23:17:27.607Z,78.42
2019-05-18T23:19:56.005Z,78.11
2019-05-18T23:22:24.494Z,78.75
2019-05-18T23:24:52.898Z,77.89
2019-05-18T23:27:21.364Z,79.11
2019-05-18T23:29:49.793Z,79.17
2019-05-18T23:32:18.278Z,79.09
2019-05-18T23:34:46.705Z,78.94
2019-05-18T23:37:15.185Z,78.54
2019-05-18T23:39:43.690Z,79.14
2019-05-18T23:42:12.084Z,79.67
2019-05-18T23:44:40.524Z,78.66
2019-05-18T23:47:08.938Z,78.63
2019-05-18T23:49:37.379Z,78.95
2019-05-18T23:52:05.841Z,78.37
2019-05-18T23:54:34.296Z,78.42
2019-05-18T23:57:02.709Z,78.69
2019-05-18T23:59:31.218Z,78.67
